• Join FlightAware (Why Join?)
  • Login
  • US Flag 
11:44AM EST


 

Airport Tracker/Info


-or-


 

Live Flight TrackerFlight Track Log ✈ MMN26 ✈ 01-May-2013 ✈ KBED - KTEB

Flight Track Log - Related Links

Times and Time Zones

All times are in EDT time to prevent confusion due to time zone crossing. See the MMN26 flight status page for this flight to view local times or setup timezone preferences in your user account.

Time Position Orientation Groundspeed Altitude Reporting Facility
EDT Latitude Longitude Course Direction KTS MPH feet Rate Location/Type
08:38AM 42.4667 -71.2500 194° South 180 207 1,400  Level KA90
08:39AM 42.4167 -71.2667 194° South 196 226 4,100 2,400 Climbing KA90
08:41AM 42.3836 -71.4394 256° West 254 292 9,000 2,520 Climbing Boston Center
08:42AM 42.3656 -71.5436 257° West 282 325 11,500 2,400 Climbing Boston Center
08:43AM 42.3436 -71.6647 256° West 318 366 13,800 1,680 Climbing Boston Center
08:44AM 42.3256 -71.7717 257° West 318 366 14,900 1,080 Climbing Boston Center
08:45AM 42.2992 -71.9292 257° West 369 425 16,000 540 Climbing Boston Center
08:46AM 42.2747 -72.0614 256° West 404 465 16,000  Level Boston Center
08:47AM 42.2481 -72.2242 258° West 413 475 16,000  Level Boston Center
08:48AM 42.2233 -72.3589 256° West 413 475 16,000  Level Boston Center
08:49AM 42.1961 -72.5214 257° West 413 475 16,000  Level Boston Center
08:50AM 42.1731 -72.6531 257° West 413 475 16,000  Level Boston Center
08:51AM 42.1581 -72.8042 262° West 413 475 16,000  Level Boston Center
08:52AM 42.1428 -72.9944 264° West 408 470 16,000  Level Boston Center
08:53AM 42.1086 -73.1369 252° West 396 456 16,000  Level Boston Center
08:54AM 42.0828 -73.2514 253° West 402 463 16,000  Level Boston Center
08:55AM 42.0419 -73.4100 251° West 402 463 16,000  Level Boston Center
08:56AM 42.0072 -73.5492 251° West 402 463 16,000  Level Boston Center
08:57AM 41.9725 -73.6911 252° West 402 463 16,000  Level Boston Center
08:58AM 41.9375 -73.8300 251° West 402 463 16,000  Level Boston Center
08:59AM 41.9044 -73.9686 252° West 402 463 16,000  Level Boston Center
09:00AM 41.8692 -74.1128 252° West 402 463 16,000  Level Boston Center
09:01AM 41.8336 -74.2483 251° West 402 463 16,000 -300 Level Boston Center
09:02AM 41.7981 -74.3867 251° West 402 463 15,400 -1,260 Descending Boston Center
09:03AM 41.7394 -74.5156 239° Southwest 374 430 13,500 -1,980 Descending Boston Center
09:04AM 41.6389 -74.5483 194° South 345 397 11,500 -2,040 Descending Boston Center
09:05AM 41.5406 -74.5644 187° South 344 396 9,500 -1,920 Descending Boston Center
09:06AM 41.4653 -74.5814 190° South 328 377 7,700 -1,440 Descending Boston Center
09:08AM 41.3500 -74.6167 193° South 274 315 6,000 -780 Descending New York TRACON
09:09AM 41.2833 -74.6167 180° South 272 313 5,900 -840 Descending New York TRACON
09:10AM 41.2000 -74.6167 180° South 270 311 4,500 -1,020 Descending New York TRACON
09:11AM 41.1333 -74.6167 180° South 272 313 4,000 -300 Descending New York TRACON
09:12AM 41.0500 -74.6167 180° South 271 312 4,000  Level New York TRACON
09:13AM 40.9833 -74.6167 180° South 271 312 4,000  Level New York TRACON
09:14AM 40.9000 -74.6000 171° South 275 316 4,000 -60 Level New York TRACON
09:15AM 40.8333 -74.6000 180° South 247 284 3,900 -540 Descending New York TRACON
09:16AM 40.7833 -74.5833 166° South 212 244 3,000 -480 Descending New York TRACON
09:17AM 40.7333 -74.5333 143° Southeast 214 246 3,000  Level New York TRACON
09:18AM 40.7000 -74.4667 123° Southeast 208 239 3,000  Level New York TRACON
09:19AM 40.6833 -74.4000 108° East 206 237 3,000 -60 Level New York TRACON
09:20AM 40.6667 -74.3333 108° East 213 245 2,900 -540 Descending New York TRACON
09:21AM 40.7000 -74.2833 49° Northeast 193 222 2,000 -720 Descending New York TRACON
09:22AM 40.7333 -74.2333 49° Northeast 172 198 1,500 -240 Descending New York TRACON
09:23AM 40.7667 -74.1833 49° Northeast 174 200 1,600  Climbing New York TRACON
09:24AM 40.8000 -74.1333 49° Northeast 176 203 1,500 -480 Descending New York TRACON
09:24AM 40.8333 -74.1000 37° Northeast 152 175 700 -900 Descending New York TRACON